createdAt,value
2023-05-16T00:00:58.484Z,8.30
2023-05-16T00:03:31.044Z,7.83
2023-05-16T00:06:02.725Z,9.97
2023-05-16T00:08:33.743Z,9.07
2023-05-16T00:11:05.022Z,9.53
2023-05-16T00:13:36.111Z,9.17
2023-05-16T00:16:08.107Z,8.73
2023-05-16T00:18:39.215Z,12.00
2023-05-16T00:21:10.263Z,10.93
2023-05-16T00:23:41.471Z,8.20
2023-05-16T00:26:12.395Z,10.27
2023-05-16T00:28:43.300Z,9.73
2023-05-16T00:31:14.218Z,9.10
2023-05-16T00:33:45.338Z,7.70
2023-05-16T00:36:16.666Z,7.90
2023-05-16T00:38:47.505Z,8.90
2023-05-16T00:41:19.036Z,9.57
2023-05-16T00:43:50.114Z,7.70
2023-05-16T00:46:21.454Z,7.83
2023-05-16T00:48:52.880Z,10.70
2023-05-16T00:51:23.890Z,10.77
2023-05-16T00:53:56.247Z,10.30
2023-05-16T00:56:27.559Z,8.27
2023-05-16T00:58:58.647Z,10.60
2023-05-16T01:01:30.760Z,8.63
2023-05-16T01:04:02.116Z,9.70
2023-05-16T01:06:34.356Z,9.83
2023-05-16T01:09:05.936Z,9.87
2023-05-16T01:11:39.787Z,10.20
2023-05-16T01:14:14.103Z,9.35
2023-05-16T01:16:49.038Z,8.03
2023-05-16T01:19:26.893Z,7.83
2023-05-16T01:22:02.960Z,9.10
2023-05-16T01:24:36.275Z,7.13
2023-05-16T01:27:07.928Z,8.27
2023-05-16T01:29:38.587Z,10.07
2023-05-16T01:32:09.760Z,7.03
2023-05-16T01:34:40.422Z,9.87
2023-05-16T01:37:14.190Z,8.93
2023-05-16T01:39:47.993Z,9.60
2023-05-16T01:42:20.778Z,8.97
2023-05-16T01:44:54.806Z,7.50
2023-05-16T01:47:27.853Z,10.43
2023-05-16T01:50:01.935Z,9.90
2023-05-16T01:52:36.015Z,9.10
2023-05-16T01:55:09.891Z,8.63
2023-05-16T01:57:42.554Z,7.53
2023-05-16T02:00:15.383Z,10.80
2023-05-16T02:02:46.687Z,9.03
2023-05-16T02:05:17.635Z,8.40
2023-05-16T02:07:48.964Z,7.57
2023-05-16T02:10:20.537Z,9.07
2023-05-16T02:12:52.215Z,11.23
2023-05-16T02:15:23.253Z,12.47
2023-05-16T02:17:54.527Z,9.50
2023-05-16T02:20:25.624Z,9.20
2023-05-16T02:22:56.796Z,7.80
2023-05-16T02:25:28.089Z,9.10
2023-05-16T02:27:59.361Z,9.20
2023-05-16T02:30:30.532Z,11.77
2023-05-16T02:33:01.670Z,12.70
2023-05-16T02:35:32.874Z,9.07
2023-05-16T02:38:03.886Z,10.37
2023-05-16T02:40:34.298Z,9.23
2023-05-16T02:43:06.249Z,10.77
2023-05-16T02:45:37.202Z,17.10
2023-05-16T02:48:09.142Z,10.30
2023-05-16T02:50:41.021Z,11.77
2023-05-16T02:53:12.107Z,12.47
2023-05-16T02:55:43.104Z,12.30
2023-05-16T02:58:14.227Z,10.63
2023-05-16T03:00:45.283Z,9.93
2023-05-16T03:03:16.451Z,10.93
2023-05-16T03:05:47.598Z,12.27
2023-05-16T03:08:18.700Z,10.87
2023-05-16T03:10:49.651Z,14.80
2023-05-16T03:13:20.957Z,11.90
2023-05-16T03:15:52.264Z,14.27
2023-05-16T03:18:23.232Z,16.40
2023-05-16T03:20:54.276Z,11.73
2023-05-16T03:23:25.522Z,13.87
2023-05-16T03:25:56.611Z,14.73
2023-05-16T03:28:28.160Z,13.13
2023-05-16T03:30:59.244Z,13.67
2023-05-16T03:33:30.296Z,14.47
2023-05-16T03:36:01.298Z,12.47
2023-05-16T03:38:32.698Z,13.57
2023-05-16T03:41:03.688Z,11.87
2023-05-16T03:43:34.590Z,15.73
2023-05-16T03:46:05.579Z,12.87
2023-05-16T03:48:36.608Z,12.70
2023-05-16T03:51:08.447Z,13.97
2023-05-16T03:53:40.068Z,12.63
2023-05-16T03:56:11.153Z,12.33
2023-05-16T03:58:42.392Z,11.97
2023-05-16T04:01:13.353Z,12.17
2023-05-16T04:03:44.710Z,13.70
2023-05-16T04:06:15.660Z,17.00
2023-05-16T04:08:46.829Z,14.63
2023-05-16T04:11:17.699Z,12.50
2023-05-16T04:13:49.051Z,16.33
2023-05-16T04:16:20.317Z,13.63
2023-05-16T04:18:52.271Z,12.57
2023-05-16T04:21:23.329Z,13.50
2023-05-16T04:23:54.442Z,14.07
2023-05-16T04:26:25.771Z,14.27
2023-05-16T04:28:57.186Z,12.63
2023-05-16T04:31:46.639Z,11.77
2023-05-16T04:34:18.300Z,16.03
2023-05-16T04:36:49.587Z,13.87
2023-05-16T04:39:20.556Z,12.90
2023-05-16T04:41:51.706Z,14.70
2023-05-16T04:44:22.675Z,16.17
2023-05-16T04:46:54.086Z,15.60
2023-05-16T04:49:25.296Z,16.03
2023-05-16T04:51:56.151Z,16.40
2023-05-16T04:54:27.601Z,14.67
2023-05-16T04:56:58.699Z,15.75
2023-05-16T04:59:29.669Z,13.57
2023-05-16T05:02:00.862Z,14.13
2023-05-16T05:04:32.067Z,16.77
2023-05-16T05:07:03.466Z,18.53
2023-05-16T05:09:34.530Z,19.40
2023-05-16T05:12:06.192Z,16.03
2023-05-16T05:14:37.171Z,18.53
2023-05-16T05:17:08.999Z,15.17
2023-05-16T05:19:40.111Z,14.47
2023-05-16T05:22:12.433Z,16.67
2023-05-16T05:24:43.503Z,16.27
2023-05-16T05:27:14.555Z,17.77
2023-05-16T05:29:46.013Z,16.80
2023-05-16T05:32:17.100Z,18.17
2023-05-16T05:34:48.671Z,19.47
2023-05-16T05:37:19.932Z,15.07
2023-05-16T05:39:51.380Z,15.37
2023-05-16T05:42:22.650Z,19.13
2023-05-16T05:44:53.866Z,16.43
2023-05-16T05:47:25.070Z,17.43
2023-05-16T05:49:56.355Z,17.20
2023-05-16T05:52:28.575Z,15.73
2023-05-16T05:55:00.226Z,14.33
2023-05-16T05:57:30.959Z,16.57
2023-05-16T06:00:01.990Z,15.07
2023-05-16T06:02:33.446Z,18.00
2023-05-16T06:05:04.605Z,17.90
2023-05-16T06:07:35.712Z,16.13
2023-05-16T06:10:08.720Z,15.80
2023-05-16T06:12:39.832Z,15.80
2023-05-16T06:15:13.198Z,20.70
2023-05-16T06:17:44.150Z,16.63
2023-05-16T06:20:16.351Z,16.77
2023-05-16T06:22:47.540Z,16.97
2023-05-16T06:25:19.132Z,16.80
2023-05-16T06:27:49.941Z,16.33
2023-05-16T06:30:21.625Z,16.73
2023-05-16T06:32:53.174Z,15.97
2023-05-16T06:35:24.717Z,15.57
2023-05-16T06:37:55.832Z,18.90
2023-05-16T06:40:26.872Z,13.67
2023-05-16T06:42:58.692Z,18.23
2023-05-16T06:45:29.839Z,16.77
2023-05-16T06:59:02.202Z,15.17
2023-05-16T07:01:33.548Z,18.13
2023-05-16T07:04:05.035Z,14.67
2023-05-16T07:06:36.909Z,17.83
2023-05-16T07:09:08.606Z,15.13
2023-05-16T07:11:39.633Z,18.50
2023-05-16T07:14:10.907Z,15.23
2023-05-16T07:16:42.082Z,16.77
2023-05-16T07:19:13.031Z,13.80
2023-05-16T07:21:43.848Z,17.77
2023-05-16T07:24:14.528Z,16.83
2023-05-16T07:26:45.417Z,13.13
2023-05-16T07:29:16.394Z,14.50
2023-05-16T07:31:47.150Z,16.40
2023-05-16T07:34:17.885Z,14.17
2023-05-16T07:36:48.668Z,15.37
2023-05-16T07:39:19.281Z,15.70
2023-05-16T07:41:49.983Z,14.13
2023-05-16T07:44:20.675Z,14.00
2023-05-16T07:46:51.652Z,16.20
2023-05-16T07:49:22.359Z,14.87
2023-05-16T07:51:53.127Z,16.63
2023-05-16T07:57:03.486Z,15.67
2023-05-16T07:59:34.625Z,17.93
2023-05-16T08:02:05.644Z,14.93
2023-05-16T08:04:36.507Z,16.00
2023-05-16T08:07:07.610Z,17.80
2023-05-16T08:09:38.477Z,13.13
2023-05-16T08:12:11.014Z,14.23
2023-05-16T08:14:41.908Z,13.87
2023-05-16T08:17:12.733Z,12.50
2023-05-16T08:19:43.701Z,11.43
2023-05-16T08:22:14.399Z,13.80
2023-05-16T08:24:45.411Z,12.27
2023-05-16T08:27:16.161Z,12.43
2023-05-16T08:29:46.878Z,11.70
2023-05-16T08:32:17.649Z,14.23
2023-05-16T08:34:49.686Z,14.87
2023-05-16T08:37:20.329Z,11.20
2023-05-16T08:39:51.456Z,11.27
2023-05-16T08:42:22.273Z,12.10
2023-05-16T08:44:53.160Z,14.43
2023-05-16T08:47:26.099Z,14.00
2023-05-16T08:49:59.172Z,12.80
2023-05-16T08:52:48.974Z,9.93
2023-05-16T08:55:22.046Z,9.50
2023-05-16T08:57:54.419Z,8.27
2023-05-16T09:00:27.402Z,7.77
2023-05-16T09:02:58.279Z,7.37
2023-05-16T09:05:31.491Z,8.17
2023-05-16T09:08:02.809Z,6.73
2023-05-16T09:10:34.557Z,8.73
2023-05-16T09:13:05.664Z,10.20
2023-05-16T09:15:39.688Z,6.83
2023-05-16T09:18:15.089Z,9.43
2023-05-16T09:20:50.225Z,6.90
2023-05-16T09:23:26.211Z,7.70
2023-05-16T09:25:58.644Z,5.80
2023-05-16T09:28:30.097Z,7.00
2023-05-16T09:31:02.472Z,6.30
2023-05-16T09:33:33.282Z,7.17
2023-05-16T09:36:08.900Z,5.95
2023-05-16T09:38:41.245Z,6.77
2023-05-16T09:41:13.235Z,7.43
2023-05-16T09:43:45.116Z,6.73
2023-05-16T09:46:17.021Z,8.47
2023-05-16T09:48:49.295Z,4.83
2023-05-16T09:51:24.325Z,6.57
2023-05-16T09:53:55.864Z,6.80
2023-05-16T09:56:27.110Z,5.17
2023-05-16T09:58:57.848Z,7.97
2023-05-16T10:01:28.753Z,7.23
2023-05-16T10:03:59.978Z,5.37
2023-05-16T10:06:30.928Z,6.87
2023-05-16T10:09:03.140Z,6.87
2023-05-16T10:11:35.087Z,7.67
2023-05-16T10:14:07.950Z,8.70
2023-05-16T10:16:39.136Z,7.13
2023-05-16T10:19:10.504Z,5.33
2023-05-16T10:21:42.148Z,6.47
2023-05-16T10:24:15.150Z,10.47
2023-05-16T10:26:46.681Z,9.67
2023-05-16T10:29:18.486Z,8.10
2023-05-16T10:31:51.254Z,8.63
2023-05-16T10:34:22.155Z,8.67
2023-05-16T10:36:54.055Z,6.63
2023-05-16T10:39:26.028Z,7.27
2023-05-16T10:41:57.185Z,12.20
2023-05-16T10:44:29.059Z,8.03
2023-05-16T10:47:01.200Z,9.83
2023-05-16T10:49:33.812Z,7.53
2023-05-16T10:52:24.985Z,14.03
2023-05-16T10:54:57.290Z,10.97
2023-05-16T10:57:28.584Z,9.30
2023-05-16T11:00:02.093Z,8.70
2023-05-16T11:02:35.459Z,9.60
2023-05-16T11:05:10.038Z,10.10
2023-05-16T11:07:46.828Z,9.57
2023-05-16T11:10:19.430Z,12.43
2023-05-16T11:12:52.578Z,8.33
2023-05-16T11:15:28.810Z,10.37
2023-05-16T11:18:11.289Z,8.33
2023-05-16T11:20:43.069Z,8.23
2023-05-16T11:23:27.904Z,8.83
2023-05-16T11:28:39.823Z,6.67
2023-05-16T11:31:12.455Z,7.90
2023-05-16T11:33:44.929Z,8.63
2023-05-16T11:36:18.016Z,6.40
2023-05-16T11:38:49.669Z,8.80
2023-05-16T11:41:22.273Z,7.27
2023-05-16T11:43:53.431Z,7.83
2023-05-16T11:46:24.602Z,7.87
2023-05-16T11:48:55.550Z,7.03
2023-05-16T11:51:26.848Z,8.93
2023-05-16T11:53:57.922Z,5.47
2023-05-16T11:56:28.956Z,5.73
2023-05-16T11:59:01.079Z,6.93
2023-05-16T12:01:37.563Z,10.70
2023-05-16T12:04:12.917Z,8.33
2023-05-16T12:06:45.736Z,6.60
2023-05-16T12:09:18.477Z,7.83
2023-05-16T12:11:50.428Z,4.67
2023-05-16T12:14:27.278Z,8.80
2023-05-16T12:16:58.489Z,6.97
2023-05-16T12:19:29.692Z,6.63
2023-05-16T12:22:01.018Z,5.30
2023-05-16T12:24:35.285Z,9.60
2023-05-16T12:27:06.913Z,7.60
2023-05-16T12:29:37.759Z,9.87
2023-05-16T12:32:10.500Z,7.77
2023-05-16T12:34:42.180Z,7.87
2023-05-16T12:37:14.520Z,5.90
2023-05-16T12:39:47.760Z,7.93
2023-05-16T12:42:18.780Z,8.17
2023-05-16T12:45:10.375Z,7.03
2023-05-16T12:47:42.007Z,11.87
2023-05-16T12:50:14.823Z,7.77
2023-05-16T12:52:53.850Z,6.73
2023-05-16T12:55:25.638Z,6.63
2023-05-16T12:58:01.264Z,12.43
2023-05-16T13:00:33.006Z,7.00
2023-05-16T13:03:03.920Z,7.37
2023-05-16T13:05:35.457Z,7.10
2023-05-16T13:08:08.055Z,4.87
2023-05-16T13:10:39.333Z,7.73
2023-05-16T13:13:11.005Z,6.67
2023-05-16T13:15:44.054Z,6.13
2023-05-16T13:18:15.444Z,6.10
2023-05-16T13:20:47.113Z,6.60
2023-05-16T13:23:18.217Z,13.57
2023-05-16T13:25:49.733Z,7.57
2023-05-16T13:28:21.323Z,8.67
2023-05-16T13:30:52.407Z,5.90
2023-05-16T13:33:24.830Z,6.93
2023-05-16T13:35:56.728Z,7.50
2023-05-16T13:38:27.872Z,5.90
2023-05-16T13:40:58.806Z,6.57
2023-05-16T13:56:16.744Z,6.73
2023-05-16T13:59:00.770Z,11.07
2023-05-16T14:01:23.630Z,4.87
2023-05-16T14:03:55.063Z,10.17
2023-05-16T14:06:25.888Z,6.20
2023-05-16T14:08:56.692Z,7.40
2023-05-16T14:11:29.447Z,5.77
2023-05-16T14:14:00.587Z,6.07
2023-05-16T14:16:31.521Z,16.63
2023-05-16T14:19:03.129Z,6.50
2023-05-16T14:21:34.580Z,7.20
2023-05-16T14:24:05.836Z,7.85
2023-05-16T14:26:36.542Z,14.43
2023-05-16T14:29:07.298Z,8.97
2023-05-16T14:31:38.378Z,6.43
2023-05-16T14:34:09.299Z,7.08
2023-05-16T14:36:40.094Z,7.83
2023-05-16T14:39:10.926Z,7.57
2023-05-16T14:41:41.688Z,6.80
2023-05-16T14:44:12.963Z,5.50
2023-05-16T14:46:43.713Z,7.17
2023-05-16T14:49:14.427Z,6.80
2023-05-16T14:51:47.583Z,10.80
2023-05-16T14:54:18.320Z,7.50
2023-05-16T14:56:50.294Z,9.23
2023-05-16T14:59:21.420Z,8.00
2023-05-16T15:01:52.882Z,6.87
2023-05-16T15:04:24.518Z,6.07
2023-05-16T15:06:56.207Z,5.43
2023-05-16T15:09:27.277Z,5.57
2023-05-16T15:11:58.124Z,5.30
2023-05-16T15:14:28.988Z,4.50
2023-05-16T15:16:59.822Z,5.07
2023-05-16T15:19:31.041Z,5.00
2023-05-16T15:22:02.647Z,5.90
2023-05-16T15:24:33.498Z,5.40
2023-05-16T15:27:05.406Z,7.70
2023-05-16T15:29:36.513Z,9.87
2023-05-16T15:32:08.957Z,6.27
2023-05-16T15:34:40.265Z,5.60
2023-05-16T15:37:11.537Z,7.08
2023-05-16T15:39:45.879Z,5.97
2023-05-16T15:42:17.051Z,5.83
2023-05-16T15:44:48.937Z,5.80
2023-05-16T15:47:19.585Z,4.20
2023-05-16T15:49:50.354Z,3.97
2023-05-16T15:52:22.832Z,4.67
2023-05-16T15:54:53.376Z,4.67
2023-05-16T15:57:24.758Z,7.57
2023-05-16T15:59:55.743Z,5.63
2023-05-16T16:02:27.005Z,5.15
2023-05-16T16:04:58.203Z,4.00
2023-05-16T16:07:29.485Z,5.93
2023-05-16T16:10:00.627Z,3.77
2023-05-16T16:12:32.745Z,4.63
2023-05-16T16:15:05.276Z,4.63
2023-05-16T16:17:36.706Z,4.60
2023-05-16T16:20:09.918Z,5.57
2023-05-16T16:22:41.093Z,6.30
2023-05-16T16:25:12.490Z,6.43
2023-05-16T16:27:44.355Z,4.63
2023-05-16T16:30:16.428Z,5.43
2023-05-16T16:32:49.013Z,7.13
2023-05-16T16:35:20.460Z,5.17
2023-05-16T16:38:05.637Z,5.43
2023-05-16T16:40:24.178Z,5.00
2023-05-16T16:42:55.333Z,6.23
2023-05-16T16:45:27.273Z,4.00
2023-05-16T16:47:58.714Z,8.53
2023-05-16T16:50:29.862Z,6.60
2023-05-16T16:53:02.336Z,4.27
2023-05-16T16:55:33.526Z,7.87
2023-05-16T16:58:05.455Z,4.13
2023-05-16T17:00:36.725Z,11.07
2023-05-16T17:03:08.302Z,7.30
2023-05-16T17:05:39.645Z,8.67
2023-05-16T17:08:11.273Z,4.83
2023-05-16T17:10:42.509Z,4.83
2023-05-16T17:13:15.030Z,4.33
2023-05-16T17:15:47.324Z,4.63
2023-05-16T17:18:19.727Z,6.63
2023-05-16T17:20:52.619Z,7.97
2023-05-16T17:23:24.031Z,4.80
2023-05-16T17:25:55.438Z,5.13
2023-05-16T17:28:27.051Z,3.40
2023-05-16T17:30:58.090Z,4.17
2023-05-16T17:33:29.166Z,3.90
2023-05-16T17:36:00.183Z,6.20
2023-05-16T17:38:31.192Z,3.50
2023-05-16T17:41:02.551Z,4.20
2023-05-16T17:43:33.695Z,5.23
2023-05-16T17:46:06.359Z,3.00
2023-05-16T17:48:37.458Z,7.23
2023-05-16T17:51:08.603Z,3.90
2023-05-16T17:53:39.752Z,6.07
2023-05-16T17:56:10.873Z,3.50
2023-05-16T17:58:42.706Z,3.73
2023-05-16T18:01:14.063Z,4.40
2023-05-16T18:03:45.236Z,3.70
2023-05-16T18:06:16.773Z,3.37
2023-05-16T18:08:48.085Z,3.40
2023-05-16T18:11:20.461Z,4.60
2023-05-16T18:13:52.096Z,6.93
2023-05-16T18:16:23.448Z,6.07
2023-05-16T18:18:54.813Z,4.00
2023-05-16T18:21:26.110Z,5.37
2023-05-16T18:23:59.558Z,8.47
2023-05-16T18:26:31.752Z,3.67
2023-05-16T18:29:05.174Z,6.90
2023-05-16T18:31:38.364Z,5.03
2023-05-16T18:34:09.761Z,4.97
2023-05-16T18:36:41.084Z,3.60
2023-05-16T18:39:12.928Z,3.20
2023-05-16T18:44:22.930Z,7.97
2023-05-16T18:46:54.189Z,8.83
2023-05-16T18:49:25.385Z,5.20
2023-05-16T18:51:56.659Z,5.47
2023-05-16T18:54:28.299Z,4.77
2023-05-16T18:56:59.493Z,3.63
2023-05-16T18:59:30.689Z,3.80
2023-05-16T19:02:01.682Z,3.03
2023-05-16T19:04:32.797Z,4.33
2023-05-16T19:07:05.249Z,3.57
2023-05-16T19:09:36.928Z,5.07
2023-05-16T19:12:09.978Z,6.70
2023-05-16T19:14:41.889Z,4.63
2023-05-16T19:17:13.193Z,4.17
2023-05-16T19:19:45.047Z,4.07
2023-05-16T19:22:16.657Z,2.57
2023-05-16T19:24:48.244Z,2.87
2023-05-16T19:27:19.539Z,2.90
2023-05-16T19:29:51.259Z,6.30
2023-05-16T19:32:22.538Z,8.13
2023-05-16T19:34:53.790Z,2.20
2023-05-16T19:37:25.024Z,3.50
2023-05-16T19:39:56.107Z,3.00
2023-05-16T19:42:27.635Z,5.90
2023-05-16T19:44:58.832Z,3.67
2023-05-16T19:47:30.051Z,5.10
2023-05-16T19:50:02.444Z,5.07
2023-05-16T19:52:33.680Z,2.90
2023-05-16T19:55:06.263Z,7.40
2023-05-16T19:57:37.822Z,5.47
2023-05-16T20:00:11.953Z,2.20
2023-05-16T20:02:43.584Z,4.70
2023-05-16T20:05:17.355Z,3.10
2023-05-16T20:07:48.828Z,3.97
2023-05-16T20:10:21.997Z,2.63
2023-05-16T20:12:53.609Z,3.43
2023-05-16T20:15:25.049Z,6.20
2023-05-16T20:17:56.064Z,2.17
2023-05-16T20:20:28.281Z,4.60
2023-05-16T20:22:59.351Z,4.73
2023-05-16T20:25:32.227Z,3.07
2023-05-16T20:28:03.380Z,4.53
2023-05-16T20:30:34.693Z,4.83
2023-05-16T20:33:06.124Z,2.97
2023-05-16T20:35:37.205Z,5.50
2023-05-16T20:38:08.145Z,4.10
2023-05-16T20:40:39.098Z,3.33
2023-05-16T20:43:10.056Z,4.33
2023-05-16T20:45:41.227Z,2.80
2023-05-16T20:48:14.176Z,3.60
2023-05-16T20:50:45.170Z,5.23
2023-05-16T20:53:16.232Z,4.07
2023-05-16T20:55:47.378Z,3.37
2023-05-16T20:58:18.247Z,3.60
2023-05-16T21:00:49.175Z,4.00
2023-05-16T21:03:20.202Z,2.10
2023-05-16T21:05:51.801Z,3.07
2023-05-16T21:08:22.942Z,2.20
2023-05-16T21:10:53.950Z,3.50
2023-05-16T21:13:25.327Z,2.37
2023-05-16T21:15:56.322Z,3.53
2023-05-16T21:18:27.448Z,2.13
2023-05-16T21:20:58.610Z,3.23
2023-05-16T21:23:29.672Z,2.47
2023-05-16T21:26:00.840Z,3.17
2023-05-16T21:28:34.798Z,2.00
2023-05-16T21:31:04.313Z,2.43
2023-05-16T21:36:13.492Z,2.33
2023-05-16T21:38:44.606Z,2.20
2023-05-16T21:41:15.943Z,4.53
2023-05-16T21:43:46.791Z,2.80
2023-05-16T21:46:18.025Z,2.57
2023-05-16T21:48:49.206Z,2.77
2023-05-16T21:51:21.068Z,4.03
2023-05-16T21:53:52.099Z,2.00
2023-05-16T21:56:23.055Z,2.63
2023-05-16T21:58:54.058Z,5.10
2023-05-16T22:01:26.616Z,2.87
2023-05-16T22:03:57.888Z,2.47
2023-05-16T22:06:30.710Z,4.17
2023-05-16T22:09:02.481Z,2.47
2023-05-16T22:11:33.514Z,3.03
2023-05-16T22:14:04.525Z,2.77
2023-05-16T22:16:35.654Z,4.30
2023-05-16T22:19:06.828Z,4.23
2023-05-16T22:21:38.065Z,4.53
2023-05-16T22:24:10.146Z,2.20
2023-05-16T22:26:41.483Z,4.57
2023-05-16T22:29:12.564Z,2.23
2023-05-16T22:31:44.056Z,3.90
2023-05-16T22:34:15.297Z,2.23
2023-05-16T22:36:46.855Z,3.07
2023-05-16T22:39:17.820Z,5.00
2023-05-16T22:41:49.030Z,2.17
2023-05-16T22:44:20.171Z,3.40
2023-05-16T22:46:51.334Z,2.30
2023-05-16T22:49:22.368Z,7.33
2023-05-16T22:51:53.498Z,4.47
2023-05-16T22:54:24.648Z,2.70
2023-05-16T22:56:55.776Z,2.17
2023-05-16T22:59:26.803Z,3.50
2023-05-16T23:01:58.144Z,1.83
2023-05-16T23:04:29.370Z,2.80
2023-05-16T23:07:00.690Z,1.93
2023-05-16T23:09:31.756Z,1.83
2023-05-16T23:12:03.083Z,3.10
2023-05-16T23:14:33.938Z,1.63
2023-05-16T23:17:05.463Z,3.90
2023-05-16T23:19:36.451Z,3.30
2023-05-16T23:22:08.244Z,3.70
2023-05-16T23:24:39.410Z,4.33
2023-05-16T23:27:10.564Z,2.13
2023-05-16T23:29:41.486Z,3.37
2023-05-16T23:32:12.613Z,1.67
2023-05-16T23:34:43.856Z,2.27
2023-05-16T23:37:15.618Z,1.40
2023-05-16T23:39:46.707Z,2.87
2023-05-16T23:42:37.152Z,2.00
2023-05-16T23:45:10.652Z,2.03
2023-05-16T23:47:41.630Z,2.73
2023-05-16T23:50:31.388Z,3.97
2023-05-16T23:53:02.669Z,2.57
2023-05-16T23:55:33.652Z,2.60
2023-05-16T23:58:04.906Z,3.63
